Dennistown, Maine
Current Conditions -  °F | °C
As of 7:00 AM on Wednesday 28 Jan 2015 (Local Time) from CYSC Reporting Station
Light Snow Light Snow  
Wind Chill: -13°   Ceiling: 5000
Heat Index:   Visibility: 9mi
Dew Point:   Wind: 12mph
Humidity: 85%   Direction: 290°WNW
Pressure: 29.96"   Gusts: NA
Location:  45.7142°N, 70.304°W
Report Text: CYSC 281200Z AUTO 29010KT 9SM -SN SCT040 OVC050 M16/M18 A2996 RMK SLP165
Loading
Personal Weather Stations






























Interactive Weather Map New forecast layout! Learn more

10-Day Weather Forecast

Advertisements
Track Severe Weather on mobile